Terminal Aerodrome Forecast
Issued by NWS Jacksonville, FL

Home | Current Version | Previous Version | Text Only | Print | Product List | Glossary On
Versions: 1 2 3 4 5 6 7 8 9 10 11 12 13 14 15 16 17 18 19 20 21 22 23 24 25 26 27 28 29 30 31 32 33 34 35 36 37 38 39
108
FTUS42 KJAX 271509 AAI
TAFJAX
TAF AMD
KJAX 271509Z 2715/2812 25004KT P6SM SCT008 BKN012 BKN100
      TEMPO 2715/2716 BKN008
     FM271600 22005KT P6SM VCTS BKN015CB BKN100
     FM271800 18007KT P6SM VCTS BKN040CB
      TEMPO 2718/2722 VRB15G25KT 3SM +TSRA BR OVC035CB
     FM280300 23003KT P6SM SCT040 BKN100=

USA.gov is the U.S. government's official web portal to all federal, state and local government web resources and services.